Time;durP1;ratioP1;P1;durP2;ratioP2;P2;SDS_P1;SDS_P2;PMS_P1;PMS_P2;Temp;Humidity;BMP_temperature;BMP_pressure;BME280_temperature;BME280_humidity;BME280_pressure;Samples;Min_cycle;Max_cycle;Signal;HPM_P1;HPM_P2
2021/12/07 00:01:49;;;;;;;6.07;5.00;;;4.80;99.90;;;;;;4989941;28;20118;-71
2021/12/07 00:04:15;;;;;;;15.45;5.72;;;4.90;99.90;;;;;;4992306;28;20058;-71
2021/12/07 00:06:41;;;;;;;7.53;5.63;;;4.90;99.90;;;;;;4992247;28;20463;-71
2021/12/07 00:09:10;;;;;;;9.95;6.75;;;4.80;99.90;;;;;;4986882;28;20039;-71
2021/12/07 00:11:36;;;;;;;6.68;5.25;;;4.80;99.90;;;;;;4989114;28;20030;-71
2021/12/07 00:14:11;;;;;;;7.90;5.82;;;4.70;99.90;;;;;;4985946;28;20404;-71
2021/12/07 00:16:38;;;;;;;7.47;5.70;;;4.60;99.90;;;;;;4991915;28;20026;-72
2021/12/07 00:19:04;;;;;;;9.45;5.85;;;4.60;99.90;;;;;;4992598;28;20034;-71
2021/12/07 00:21:30;;;;;;;7.60;5.82;;;4.60;99.90;;;;;;4998083;28;20037;-71
2021/12/07 00:23:55;;;;;;;8.32;6.60;;;4.50;99.90;;;;;;5010583;28;20022;-72
2021/12/07 00:26:21;;;;;;;8.70;6.15;;;4.40;99.90;;;;;;4992648;28;20050;-71
2021/12/07 00:28:50;;;;;;;8.98;6.38;;;4.30;99.90;;;;;;5002752;28;20530;-71
2021/12/07 00:31:26;;;;;;;8.93;6.00;;;4.30;99.90;;;;;;4996369;28;20463;-70
2021/12/07 00:34:09;;;;;;;8.20;6.07;;;4.40;99.90;;;;;;4992859;28;20117;-71
2021/12/07 00:36:37;;;;;;;8.98;6.07;;;4.30;99.90;;;;;;4995760;28;20025;-71
2021/12/07 00:39:07;;;;;;;6.28;4.70;;;4.30;99.90;;;;;;4992300;28;20102;-72
2021/12/07 00:41:34;;;;;;;9.88;6.15;;;4.30;99.90;;;;;;5006063;28;20113;-72
2021/12/07 00:44:02;;;;;;;7.13;5.88;;;4.40;99.90;;;;;;4993304;28;20373;-71
2021/12/07 00:46:28;;;;;;;6.85;5.38;;;4.40;99.90;;;;;;4990507;28;20059;-72
2021/12/07 00:48:53;;;;;;;8.57;5.70;;;4.40;99.90;;;;;;4995267;28;20032;-72
2021/12/07 00:51:19;;;;;;;5.90;5.28;;;4.50;99.90;;;;;;5011648;28;20030;-71
2021/12/07 00:53:45;;;;;;;8.63;5.38;;;4.60;99.90;;;;;;4996793;28;20041;-72
2021/12/07 00:56:11;;;;;;;5.55;4.50;;;4.70;99.90;;;;;;5000651;28;20052;-72
2021/12/07 00:58:37;;;;;;;5.05;4.55;;;4.80;99.90;;;;;;4993523;28;20069;-71
2021/12/07 01:01:07;;;;;;;3.97;3.60;;;4.80;99.90;;;;;;4991770;28;20041;-71
2021/12/07 01:03:33;;;;;;;6.10;4.15;;;4.90;99.90;;;;;;4990420;28;20026;-71
2021/12/07 01:25:16;;;;;;;3.92;3.33;;;4.80;99.90;;;;;;5002572;28;19939;-71
2021/12/07 01:27:44;;;;;;;7.32;4.18;;;4.80;99.90;;;;;;5000764;28;20041;-71
2021/12/07 01:30:18;;;;;;;5.35;4.43;;;4.80;99.90;;;;;;4990261;28;20049;-71
2021/12/07 01:35:59;;;;;;;8.65;4.20;;;4.80;99.90;;;;;;4991490;28;20045;-72
2021/12/07 02:01:45;;;;;;;3.75;3.25;;;4.50;99.90;;;;;;4990515;28;20164;-71
2021/12/07 02:04:11;;;;;;;5.22;3.90;;;4.50;99.90;;;;;;4994009;28;20498;-71
2021/12/07 02:06:36;;;;;;;7.35;3.97;;;4.60;99.90;;;;;;4990517;28;20033;-71
2021/12/07 02:09:05;;;;;;;5.30;4.07;;;4.50;99.90;;;;;;4997872;28;20026;-72
2021/12/07 02:11:32;;;;;;;5.80;4.10;;;4.50;99.90;;;;;;5009603;28;20026;-71
2021/12/07 02:16:29;;;;;;;6.63;3.55;;;4.40;99.90;;;;;;4991132;28;20101;-71
2021/12/07 02:18:54;;;;;;;4.72;4.00;;;4.40;99.90;;;;;;5005741;28;20021;-71
2021/12/07 02:21:26;;;;;;;3.88;2.60;;;4.40;99.90;;;;;;5005566;28;20383;-72
2021/12/07 02:23:53;;;;;;;3.85;3.45;;;4.50;99.90;;;;;;4986779;28;20039;-71
2021/12/07 02:26:20;;;;;;;4.07;3.42;;;4.60;99.90;;;;;;4996213;28;20462;-71
2021/12/07 02:28:49;;;;;;;3.38;2.63;;;4.60;99.90;;;;;;4989700;28;20042;-73
2021/12/07 02:31:15;;;;;;;7.63;3.55;;;4.70;99.90;;;;;;4990084;28;20109;-72
2021/12/07 02:33:41;;;;;;;5.38;2.88;;;4.70;99.90;;;;;;4990233;28;20057;-72
2021/12/07 02:36:07;;;;;;;4.53;3.63;;;4.80;99.90;;;;;;4991981;28;20057;-72
2021/12/07 02:38:33;;;;;;;5.22;3.40;;;4.80;99.90;;;;;;5004651;28;20149;-72
2021/12/07 02:40:59;;;;;;;6.00;4.28;;;4.80;99.90;;;;;;4989976;28;20030;-71
2021/12/07 02:43:25;;;;;;;4.50;3.40;;;4.70;99.90;;;;;;4994395;28;20049;-71
2021/12/07 02:45:51;;;;;;;5.43;2.90;;;4.80;99.90;;;;;;4993058;28;20035;-71
2021/12/07 02:48:21;;;;;;;6.32;3.45;;;4.80;99.90;;;;;;4992848;28;20022;-71
2021/12/07 02:50:48;;;;;;;5.03;4.53;;;4.90;99.90;;;;;;4993051;28;20089;-71
2021/12/07 02:53:14;;;;;;;4.10;3.28;;;4.80;99.90;;;;;;4993875;28;20113;-72
2021/12/07 02:55:39;;;;;;;4.63;3.78;;;4.70;99.90;;;;;;5000407;28;20104;-71
2021/12/07 02:58:05;;;;;;;4.25;3.10;;;4.60;99.90;;;;;;4992879;28;20092;-70
2021/12/07 03:00:41;;;;;;;6.68;2.80;;;4.60;99.90;;;;;;4992794;28;20026;-70
2021/12/07 03:03:10;;;;;;;3.20;2.60;;;4.80;99.90;;;;;;4993076;28;20022;-71
2021/12/07 03:27:11;;;;;;;3.42;2.45;;;5.20;99.90;;;;;;4993440;28;20104;-71
2021/12/07 03:29:37;;;;;;;3.92;2.58;;;5.10;99.90;;;;;;4988421;28;20489;-71
2021/12/07 03:32:04;;;;;;;2.83;2.17;;;5.10;99.90;;;;;;4992769;28;20034;-71
2021/12/07 03:34:29;;;;;;;2.85;2.63;;;4.90;99.90;;;;;;4992481;28;20034;-71
2021/12/07 03:36:55;;;;;;;4.78;2.22;;;4.90;99.90;;;;;;4991800;28;20547;-72
2021/12/07 03:39:21;;;;;;;2.97;2.47;;;4.80;99.90;;;;;;4992109;28;20034;-72
2021/12/07 03:41:47;;;;;;;3.33;2.60;;;4.70;99.90;;;;;;4992300;28;20058;-71
2021/12/07 03:44:13;;;;;;;3.80;2.58;;;4.60;99.90;;;;;;4992867;28;20081;-71
2021/12/07 03:46:38;;;;;;;7.22;3.00;;;4.50;99.90;;;;;;4992600;28;20041;-71
2021/12/07 03:49:04;;;;;;;5.00;2.42;;;4.50;99.90;;;;;;4992629;28;20030;-72
2021/12/07 03:51:30;;;;;;;3.33;2.22;;;4.50;99.90;;;;;;4992977;28;20035;-72
2021/12/07 03:53:56;;;;;;;6.60;2.67;;;4.50;99.90;;;;;;4991445;28;20105;-71
2021/12/07 03:56:21;;;;;;;4.47;2.97;;;4.50;99.90;;;;;;4992037;28;20037;-72
2021/12/07 03:58:47;;;;;;;4.00;2.70;;;4.50;99.90;;;;;;4991983;28;20032;-71
2021/12/07 04:01:14;;;;;;;5.63;3.70;;;4.40;99.90;;;;;;4992194;28;20061;-72
2021/12/07 04:03:41;;;;;;;5.13;3.22;;;4.50;99.90;;;;;;4991984;28;20052;-71
2021/12/07 04:06:07;;;;;;;5.07;3.70;;;4.50;99.90;;;;;;4991762;28;20031;-71
2021/12/07 04:08:38;;;;;;;6.38;3.35;;;4.40;99.90;;;;;;4991734;28;20027;-72
2021/12/07 04:11:05;;;;;;;3.90;3.58;;;4.30;99.90;;;;;;4991957;28;20027;-72
2021/12/07 04:13:32;;;;;;;10.98;5.53;;;4.30;99.90;;;;;;4989187;28;20037;-71
2021/12/07 04:15:59;;;;;;;3.97;3.22;;;4.40;99.90;;;;;;4991316;28;20036;-73
2021/12/07 04:18:25;;;;;;;7.32;4.22;;;4.40;99.90;;;;;;4990998;28;20030;-71
2021/12/07 04:20:51;;;;;;;6.28;4.57;;;4.40;99.90;;;;;;4991585;28;20029;-71
2021/12/07 04:23:17;;;;;;;4.88;4.38;;;4.40;99.90;;;;;;4991999;28;20088;-71
2021/12/07 04:25:45;;;;;;;4.53;3.38;;;4.40;99.90;;;;;;4990254;28;20049;-72
2021/12/07 04:28:11;;;;;;;6.13;4.07;;;4.40;99.90;;;;;;4997335;28;20030;-71
2021/12/07 04:30:40;;;;;;;5.78;3.90;;;4.40;99.90;;;;;;5002465;28;20026;-71
2021/12/07 04:33:09;;;;;;;4.55;3.88;;;4.40;99.90;;;;;;4991600;28;20026;-71
2021/12/07 04:35:36;;;;;;;6.53;4.20;;;4.30;99.90;;;;;;4994236;28;20053;-72
2021/12/07 04:38:02;;;;;;;4.68;3.90;;;4.20;99.90;;;;;;5011059;28;20121;-71
2021/12/07 04:40:30;;;;;;;6.15;4.30;;;4.20;99.90;;;;;;4993140;28;20105;-72
2021/12/07 04:42:57;;;;;;;12.65;4.13;;;4.30;99.90;;;;;;5003302;28;20028;-72
2021/12/07 04:45:34;;;;;;;6.30;3.83;;;4.30;99.90;;;;;;4994890;28;20030;-71
2021/12/07 04:58:59;;;;;;;5.75;3.70;;;4.10;99.90;;;;;;4990803;28;20045;-72
2021/12/07 05:01:27;;;;;;;7.13;3.50;;;4.10;99.90;;;;;;5002036;28;20488;-72
2021/12/07 05:03:58;;;;;;;10.75;7.18;;;4.00;99.90;;;;;;5009405;28;20022;-71
2021/12/07 05:06:28;;;;;;;16.37;9.83;;;4.00;99.90;;;;;;5005772;28;20029;-72
2021/12/07 05:09:04;;;;;;;17.73;10.70;;;4.00;99.90;;;;;;4989515;28;20022;-71
2021/12/07 05:11:47;;;;;;;16.05;11.25;;;4.00;99.90;;;;;;4997500;28;20053;-71
2021/12/07 05:14:24;;;;;;;8.80;6.45;;;4.00;99.90;;;;;;5010947;28;20030;-71
2021/12/07 05:24:25;;;;;;;10.93;8.50;;;3.90;99.90;;;;;;5030216;28;20102;-71
2021/12/07 05:40:29;;;;;;;4.68;3.20;;;3.90;99.90;;;;;;4988762;28;20366;-71
2021/12/07 05:42:57;;;;;;;5.70;3.28;;;3.90;99.90;;;;;;4990211;28;20022;-71
2021/12/07 05:45:27;;;;;;;4.40;3.72;;;3.90;99.90;;;;;;4990795;28;20535;-71
2021/12/07 05:47:53;;;;;;;4.05;3.50;;;3.80;99.90;;;;;;4990340;28;20027;-72
2021/12/07 05:50:23;;;;;;;5.15;3.00;;;3.80;99.90;;;;;;4990312;28;20034;-71
2021/12/07 05:52:49;;;;;;;9.18;4.28;;;3.90;99.90;;;;;;4971266;28;20030;-71
2021/12/07 05:55:15;;;;;;;9.00;3.53;;;3.90;99.90;;;;;;4981985;28;20042;-72
2021/12/07 05:57:41;;;;;;;6.60;3.50;;;4.30;99.90;;;;;;4990307;28;20117;-72
2021/12/07 06:00:23;;;;;;;9.98;4.10;;;4.50;99.90;;;;;;4991094;28;20023;-72
2021/12/07 06:02:49;;;;;;;4.22;3.15;;;4.60;99.90;;;;;;4991831;28;20027;-72
2021/12/07 06:05:15;;;;;;;5.38;3.00;;;4.70;99.90;;;;;;4989470;28;20048;-72
2021/12/07 06:07:41;;;;;;;4.10;3.30;;;4.70;99.90;;;;;;4990342;28;20048;-72
2021/12/07 06:10:07;;;;;;;3.28;2.40;;;4.70;99.90;;;;;;4990678;28;20035;-72
2021/12/07 06:12:33;;;;;;;6.93;4.22;;;4.70;99.90;;;;;;4991338;28;20030;-72
2021/12/07 06:14:58;;;;;;;5.13;4.57;;;4.70;99.90;;;;;;4987654;28;20026;-72
2021/12/07 06:17:24;;;;;;;3.88;3.47;;;4.70;99.90;;;;;;4992839;28;20038;-72
2021/12/07 06:19:51;;;;;;;5.35;3.72;;;4.70;99.90;;;;;;4999363;28;20014;-72
2021/12/07 06:22:17;;;;;;;3.78;3.22;;;4.70;99.90;;;;;;5014129;28;20034;-72
2021/12/07 06:24:43;;;;;;;4.78;3.35;;;4.70;99.90;;;;;;4990829;28;20529;-72
2021/12/07 06:27:08;;;;;;;4.40;3.58;;;4.70;99.90;;;;;;5000527;28;20036;-72
2021/12/07 06:29:34;;;;;;;5.38;3.88;;;4.60;99.90;;;;;;4991709;28;20027;-74
2021/12/07 06:32:00;;;;;;;7.40;4.55;;;4.50;99.90;;;;;;4994689;28;20022;-75
2021/12/07 06:34:26;;;;;;;5.65;3.88;;;4.50;99.90;;;;;;4995703;28;20061;-73
2021/12/07 06:36:51;;;;;;;7.07;3.83;;;4.50;99.90;;;;;;4995769;28;20066;-72
2021/12/07 06:39:18;;;;;;;7.68;6.53;;;4.60;99.90;;;;;;4987106;28;20353;-72
2021/12/07 06:41:44;;;;;;;5.78;3.70;;;4.60;99.90;;;;;;4993107;28;20022;-72
2021/12/07 06:44:10;;;;;;;3.80;3.05;;;4.60;99.90;;;;;;4993758;28;20033;-73
2021/12/07 06:46:36;;;;;;;4.80;3.67;;;4.60;99.90;;;;;;4993201;28;20230;-73
2021/12/07 06:49:03;;;;;;;7.63;4.50;;;4.50;99.90;;;;;;4993751;28;20034;-73
2021/12/07 06:51:29;;;;;;;3.65;3.00;;;4.40;99.90;;;;;;4994347;28;20093;-74
2021/12/07 06:53:56;;;;;;;4.38;3.45;;;4.30;99.90;;;;;;4994053;28;20127;-73
2021/12/07 06:56:23;;;;;;;5.10;4.43;;;4.30;99.90;;;;;;4993093;28;20058;-73
2021/12/07 06:58:49;;;;;;;3.50;3.20;;;4.30;99.90;;;;;;4993058;28;20027;-73
2021/12/07 07:01:15;;;;;;;3.65;3.30;;;4.40;99.90;;;;;;4993377;28;20337;-73
2021/12/07 07:03:41;;;;;;;4.07;3.13;;;4.60;99.90;;;;;;4993805;28;20337;-75
2021/12/07 07:06:08;;;;;;;8.18;2.95;;;4.70;99.90;;;;;;4993509;28;20503;-74
2021/12/07 07:08:33;;;;;;;3.00;2.20;;;4.80;99.90;;;;;;4993980;28;20059;-74
2021/12/07 07:10:59;;;;;;;5.30;3.03;;;4.90;99.90;;;;;;4993325;28;20029;-74
2021/12/07 07:13:25;;;;;;;5.15;2.90;;;4.90;99.90;;;;;;4993752;28;20516;-74
2021/12/07 07:15:51;;;;;;;4.82;4.10;;;5.00;99.90;;;;;;4993940;28;20061;-73
2021/12/07 07:18:16;;;;;;;7.05;2.47;;;5.10;99.90;;;;;;4993884;28;20477;-74
2021/12/07 07:20:42;;;;;;;2.95;2.55;;;5.20;99.90;;;;;;5001795;28;20065;-72
2021/12/07 07:23:08;;;;;;;4.35;3.10;;;5.20;99.90;;;;;;5012406;28;20026;-74
2021/12/07 07:25:34;;;;;;;4.00;3.35;;;5.40;99.90;;;;;;5004772;28;20037;-73
2021/12/07 07:28:00;;;;;;;4.70;3.25;;;5.50;99.90;;;;;;4990369;28;20041;-73
2021/12/07 07:30:26;;;;;;;8.07;3.03;;;5.50;99.90;;;;;;4997122;28;20029;-73
2021/12/07 07:32:52;;;;;;;4.72;3.35;;;5.40;99.90;;;;;;5012738;28;20076;-74
2021/12/07 07:35:18;;;;;;;5.03;2.67;;;5.40;99.90;;;;;;5008151;28;20038;-69
2021/12/07 07:37:44;;;;;;;3.53;2.72;;;5.50;99.90;;;;;;5010887;28;20040;-70
2021/12/07 07:40:16;;;;;;;4.22;2.55;;;5.50;99.90;;;;;;5011224;28;20506;-69
2021/12/07 07:42:42;;;;;;;2.25;1.70;;;5.60;99.90;;;;;;5012498;28;20092;-70
2021/12/07 07:45:09;;;;;;;7.50;3.38;;;5.70;99.90;;;;;;5009420;28;20043;-70
2021/12/07 07:47:34;;;;;;;4.07;2.45;;;5.60;99.90;;;;;;5010565;28;20088;-69
2021/12/07 07:50:00;;;;;;;6.78;2.83;;;5.60;99.90;;;;;;5012082;28;20387;-68
2021/12/07 07:52:26;;;;;;;3.83;3.33;;;5.60;99.90;;;;;;5012532;28;20029;-69
2021/12/07 07:54:52;;;;;;;9.43;3.30;;;5.70;99.90;;;;;;5011508;28;20121;-69
2021/12/07 07:57:18;;;;;;;5.78;2.83;;;5.90;99.90;;;;;;5011853;28;20030;-69
2021/12/07 07:59:44;;;;;;;3.67;2.17;;;5.90;99.90;;;;;;5000769;28;20181;-70
2021/12/07 08:02:10;;;;;;;6.38;2.88;;;6.00;99.90;;;;;;4992604;28;20510;-70
2021/12/07 08:04:36;;;;;;;5.25;2.95;;;6.00;99.90;;;;;;4992609;28;20321;-70
2021/12/07 08:07:02;;;;;;;4.93;2.88;;;6.00;99.90;;;;;;4992254;28;20117;-70
2021/12/07 08:09:28;;;;;;;4.95;2.70;;;6.00;99.90;;;;;;4992219;28;20101;-69
2021/12/07 08:11:54;;;;;;;5.38;3.70;;;6.00;99.90;;;;;;5010718;28;20037;-70
2021/12/07 08:14:19;;;;;;;8.10;3.72;;;6.10;99.90;;;;;;4998080;28;20126;-70
2021/12/07 08:16:46;;;;;;;5.35;2.85;;;6.30;99.90;;;;;;4990515;28;20046;-70
2021/12/07 08:19:12;;;;;;;4.90;2.65;;;6.30;99.90;;;;;;4982222;28;20046;-70
2021/12/07 08:21:38;;;;;;;3.97;2.67;;;6.50;99.90;;;;;;4991230;28;20584;-70
2021/12/07 08:24:04;;;;;;;4.28;2.90;;;6.50;99.90;;;;;;4992064;28;20377;-70
2021/12/07 08:26:31;;;;;;;4.72;2.85;;;6.60;99.90;;;;;;4989972;28;20487;-69
2021/12/07 08:28:58;;;;;;;4.15;2.30;;;6.80;99.90;;;;;;4991456;28;20041;-69
2021/12/07 08:31:25;;;;;;;6.03;3.10;;;6.90;99.90;;;;;;4990326;28;20089;-69
2021/12/07 08:33:51;;;;;;;4.68;3.67;;;7.00;99.90;;;;;;4991660;28;20069;-66
2021/12/07 08:36:18;;;;;;;4.22;2.78;;;7.10;99.90;;;;;;4992045;28;20029;-69
2021/12/07 08:38:44;;;;;;;5.53;2.72;;;7.20;99.90;;;;;;4990937;28;20134;-69
2021/12/07 08:41:11;;;;;;;4.40;2.90;;;7.30;99.90;;;;;;4991454;28;20454;-69
2021/12/07 08:43:40;;;;;;;3.92;2.92;;;7.40;99.90;;;;;;4991183;28;20105;-69
2021/12/07 08:46:06;;;;;;;6.10;2.55;;;7.40;99.90;;;;;;4991441;28;20480;-69
2021/12/07 08:48:34;;;;;;;3.63;2.15;;;7.50;99.90;;;;;;4991374;28;20424;-67
2021/12/07 08:51:00;;;;;;;6.00;3.83;;;7.50;99.90;;;;;;4991105;28;20029;-68
2021/12/07 08:53:27;;;;;;;9.48;3.00;;;7.60;99.90;;;;;;4991384;28;20035;-68
2021/12/07 09:01:25;;;;;;;4.13;2.53;;;7.60;99.90;;;;;;4991514;28;20057;-67
2021/12/07 09:03:53;;;;;;;2.42;2.22;;;7.60;99.90;;;;;;4991864;28;20403;-68
2021/12/07 09:06:18;;;;;;;8.43;3.80;;;7.90;99.90;;;;;;5001673;28;20025;-68
2021/12/07 09:08:45;;;;;;;4.90;2.58;;;8.00;99.90;;;;;;4981217;28;20026;-68
2021/12/07 09:11:13;;;;;;;7.00;2.10;;;8.10;99.90;;;;;;4989899;28;20023;-67
2021/12/07 09:13:40;;;;;;;3.30;1.92;;;7.90;99.90;;;;;;4991215;28;20038;-68
2021/12/07 09:16:08;;;;;;;3.70;2.60;;;8.00;99.90;;;;;;4991176;28;20031;-67
2021/12/07 09:18:34;;;;;;;1.67;1.55;;;8.10;99.90;;;;;;4990255;28;20037;-68
2021/12/07 09:21:00;;;;;;;3.13;2.10;;;8.40;99.90;;;;;;4990003;28;20026;-68
2021/12/07 09:23:26;;;;;;;4.50;2.38;;;8.50;99.90;;;;;;4991542;28;20026;-66
2021/12/07 09:25:53;;;;;;;3.20;2.35;;;8.20;99.90;;;;;;4988754;28;20065;-66
2021/12/07 09:28:20;;;;;;;9.57;3.35;;;8.00;99.90;;;;;;4988352;28;20034;-66
2021/12/07 09:30:51;;;;;;;8.10;3.67;;;7.90;99.90;;;;;;4991384;28;20050;-65
2021/12/07 09:33:19;;;;;;;14.00;9.27;;;7.90;99.90;;;;;;4990760;28;20030;-66
2021/12/07 09:35:45;;;;;;;12.00;3.83;;;8.10;99.90;;;;;;4991186;28;20077;-67
2021/12/07 09:38:12;;;;;;;4.97;2.42;;;8.20;99.90;;;;;;4990637;28;20030;-67
2021/12/07 09:40:38;;;;;;;5.32;2.83;;;8.00;99.90;;;;;;4990866;28;20391;-66
2021/12/07 09:43:05;;;;;;;8.00;4.90;;;7.90;99.90;;;;;;4987756;28;20018;-65
2021/12/07 09:45:32;;;;;;;5.32;4.20;;;7.90;99.90;;;;;;4986744;28;20027;-66
2021/12/07 09:47:59;;;;;;;33.17;18.52;;;8.00;99.90;;;;;;4990829;28;20174;-64
2021/12/07 09:50:26;;;;;;;33.20;21.88;;;8.20;99.90;;;;;;4990772;28;20044;-65
2021/12/07 09:52:52;;;;;;;7.20;4.57;;;8.40;99.90;;;;;;4994422;28;20038;-65
2021/12/07 09:55:19;;;;;;;8.43;4.82;;;8.60;99.90;;;;;;4995589;28;20041;-67
2021/12/07 09:57:47;;;;;;;31.95;16.75;;;8.30;99.90;;;;;;4994438;28;20080;-67
2021/12/07 10:00:18;;;;;;;26.50;16.80;;;8.40;99.90;;;;;;4993081;28;20615;-66
2021/12/07 10:02:44;;;;;;;30.95;20.98;;;8.60;99.90;;;;;;5011735;28;20033;-68
2021/12/07 10:05:11;;;;;;;18.52;11.85;;;8.90;99.90;;;;;;4996938;28;20030;-66
2021/12/07 10:07:37;;;;;;;22.10;15.02;;;9.00;99.90;;;;;;4993720;28;20042;-67
2021/12/07 10:10:10;;;;;;;16.50;8.38;;;9.20;99.90;;;;;;4994219;28;20461;-66
2021/12/07 10:12:37;;;;;;;11.77;5.90;;;9.30;99.90;;;;;;4994621;28;20034;-66
2021/12/07 10:15:07;;;;;;;2.75;1.80;;;9.30;99.90;;;;;;4993777;28;20027;-66
2021/12/07 10:17:37;;;;;;;2.20;1.60;;;9.30;99.90;;;;;;4992455;28;20433;-66
2021/12/07 10:20:37;;;;;;;2.45;2.10;;;9.30;99.90;;;;;;4994818;28;20022;-67
2021/12/07 10:23:24;;;;;;;11.82;4.07;;;9.20;99.90;;;;;;4995966;28;20531;-67
2021/12/07 10:25:55;;;;;;;2.42;1.83;;;9.30;99.90;;;;;;4996636;28;20388;-67
2021/12/07 10:28:31;;;;;;;9.13;4.57;;;9.20;99.90;;;;;;4993665;28;20114;-68
2021/12/07 10:31:13;;;;;;;5.13;1.70;;;9.00;99.90;;;;;;4993727;28;20116;-67
2021/12/07 10:33:43;;;;;;;4.80;2.15;;;9.00;99.90;;;;;;5006095;28;20080;-66
2021/12/07 10:36:34;;;;;;;1.90;1.52;;;9.00;99.90;;;;;;5013917;28;20033;-66
2021/12/07 10:39:14;;;;;;;1.75;1.48;;;8.90;99.90;;;;;;5013117;28;20037;-66
2021/12/07 10:41:48;;;;;;;2.90;2.42;;;8.80;99.90;;;;;;5008047;28;20369;-67
2021/12/07 10:44:28;;;;;;;2.53;2.13;;;8.80;99.90;;;;;;4985930;28;20022;-66
2021/12/07 10:46:58;;;;;;;2.92;1.58;;;8.60;99.90;;;;;;4993209;28;20042;-67
2021/12/07 10:49:44;;;;;;;3.38;1.60;;;8.60;99.90;;;;;;4993499;28;20429;-67
2021/12/07 10:52:18;;;;;;;2.47;1.65;;;8.60;99.90;;;;;;4994149;28;20110;-67
2021/12/07 10:55:02;;;;;;;4.63;1.65;;;8.70;99.90;;;;;;4994475;28;20057;-66
2021/12/07 10:57:34;;;;;;;4.28;1.20;;;8.70;99.90;;;;;;4995603;28;20084;-67
2021/12/07 11:00:17;;;;;;;1.70;1.60;;;8.80;99.90;;;;;;4995190;28;20037;-67
2021/12/07 11:02:47;;;;;;;3.17;2.85;;;8.70;99.90;;;;;;4993512;28;20027;-68
2021/12/07 11:05:20;;;;;;;1.98;1.60;;;8.80;99.90;;;;;;4993689;28;20026;-68
2021/12/07 11:07:47;;;;;;;1.92;1.73;;;9.00;99.90;;;;;;4993662;28;20049;-67
2021/12/07 11:10:22;;;;;;;1.65;1.17;;;9.00;99.90;;;;;;4993017;28;20034;-69
2021/12/07 11:13:23;;;;;;;1.50;1.15;;;9.10;99.90;;;;;;5008418;28;20534;-66
2021/12/07 11:15:54;;;;;;;2.58;1.58;;;9.10;99.90;;;;;;5012359;28;20045;-67
2021/12/07 11:18:26;;;;;;;1.40;1.30;;;9.10;99.90;;;;;;4974600;28;20151;-67
2021/12/07 11:20:55;;;;;;;1.83;1.65;;;9.10;99.90;;;;;;4975262;28;20030;-66
2021/12/07 11:23:26;;;;;;;2.28;2.08;;;9.30;99.90;;;;;;4974902;28;20077;-66
2021/12/07 11:29:40;;;;;;;2.37;1.53;;;9.40;99.90;;;;;;4976485;28;20027;-67
2021/12/07 11:31:37;;;;;;;4.93;1.30;;;9.50;99.90;;;;;;4990338;28;20756;-66
2021/12/07 11:34:21;;;;;;;1.48;0.93;;;9.50;99.90;;;;;;4995603;28;20018;-66
2021/12/07 11:36:54;;;;;;;2.28;1.40;;;9.50;99.90;;;;;;4999764;28;20057;-66
2021/12/07 11:39:30;;;;;;;1.13;0.93;;;9.40;99.90;;;;;;4993158;28;20062;-65
2021/12/07 11:42:10;;;;;;;1.08;0.73;;;9.20;99.90;;;;;;4993384;28;20137;-66
2021/12/07 11:44:47;;;;;;;1.60;1.33;;;9.10;99.90;;;;;;4997805;28;20018;-65
2021/12/07 11:47:13;;;;;;;1.38;1.27;;;9.10;99.90;;;;;;5008633;28;20022;-65
2021/12/07 11:49:39;;;;;;;1.30;1.20;;;9.00;99.90;;;;;;4992359;28;20580;-65
2021/12/07 11:52:06;;;;;;;1.73;1.60;;;9.00;99.90;;;;;;4992563;28;20026;-67
2021/12/07 11:54:35;;;;;;;3.65;1.40;;;9.00;99.90;;;;;;4992391;28;20081;-65
2021/12/07 11:57:04;;;;;;;1.25;1.15;;;9.10;99.90;;;;;;4991947;28;20476;-66
2021/12/07 11:59:30;;;;;;;2.13;1.77;;;9.20;99.90;;;;;;4999128;28;20054;-65
2021/12/07 12:01:56;;;;;;;2.22;1.35;;;9.20;99.90;;;;;;4995635;28;20038;-66
2021/12/07 12:04:22;;;;;;;1.90;1.80;;;9.20;99.90;;;;;;4992092;28;20026;-67
2021/12/07 12:06:50;;;;;;;1.80;1.70;;;9.00;99.90;;;;;;4992575;28;20061;-65
2021/12/07 12:09:17;;;;;;;2.42;1.90;;;8.90;99.90;;;;;;4990383;28;20030;-66
2021/12/07 12:12:16;;;;;;;3.55;1.40;;;8.80;99.90;;;;;;4988389;28;20019;-66
2021/12/07 12:15:04;;;;;;;2.83;1.65;;;8.90;99.90;;;;;;4987685;28;20093;-66
2021/12/07 12:17:51;;;;;;;3.40;1.83;;;9.00;99.90;;;;;;4983427;28;20030;-66
2021/12/07 12:20:56;;;;;;;5.78;5.18;;;9.10;99.90;;;;;;4989958;28;20064;-65
2021/12/07 12:23:55;;;;;;;4.53;1.58;;;9.10;99.90;;;;;;4989474;28;20040;-65
2021/12/07 12:26:23;;;;;;;1.70;1.60;;;9.10;99.90;;;;;;4983755;28;20022;-65
2021/12/07 12:28:51;;;;;;;3.67;2.60;;;9.10;99.90;;;;;;4989176;28;20123;-65
2021/12/07 12:31:19;;;;;;;3.53;1.83;;;9.00;99.90;;;;;;4991173;28;20030;-65
2021/12/07 12:33:54;;;;;;;1.40;1.27;;;9.00;99.90;;;;;;4990981;28;20049;-65
2021/12/07 12:36:22;;;;;;;4.97;1.67;;;9.00;99.90;;;;;;4989209;28;20489;-66
2021/12/07 12:39:00;;;;;;;2.45;1.58;;;8.90;99.90;;;;;;4989899;28;20048;-66
2021/12/07 12:41:27;;;;;;;3.88;1.70;;;8.90;99.90;;;;;;4984324;28;20184;-65
2021/12/07 12:43:59;;;;;;;4.97;1.85;;;8.90;99.90;;;;;;4991628;28;20049;-66
2021/12/07 12:46:29;;;;;;;;;;;8.80;99.90;;;;;;4984491;28;20030;-65
2021/12/07 12:49:04;;;;;;;3.15;1.25;;;8.90;99.90;;;;;;4983112;28;19949;-67
2021/12/07 12:51:42;;;;;;;1.52;1.25;;;8.80;99.90;;;;;;4992676;28;20018;-65
2021/12/07 12:54:08;;;;;;;1.17;1.02;;;8.80;99.90;;;;;;4993109;28;20453;-66
2021/12/07 12:56:36;;;;;;;1.23;1.10;;;8.80;99.90;;;;;;4991779;28;20027;-65
2021/12/07 12:59:05;;;;;;;2.03;1.35;;;8.80;99.90;;;;;;4990782;28;20101;-66
2021/12/07 13:01:33;;;;;;;1.80;1.33;;;8.80;99.90;;;;;;4991456;28;20030;-66
2021/12/07 13:04:02;;;;;;;3.03;1.33;;;8.80;99.90;;;;;;4990972;28;20506;-65
2021/12/07 13:06:37;;;;;;;2.42;1.70;;;8.70;99.90;;;;;;4992400;28;20468;-66
2021/12/07 13:09:13;;;;;;;2.30;2.10;;;8.70;99.90;;;;;;4987670;28;20081;-67
2021/12/07 13:11:40;;;;;;;2.00;1.90;;;8.70;99.90;;;;;;4990243;28;20434;-66
2021/12/07 13:14:26;;;;;;;2.47;2.28;;;8.70;99.90;;;;;;4991393;28;20184;-66
2021/12/07 13:16:54;;;;;;;2.55;1.50;;;8.70;99.90;;;;;;4972947;28;20076;-65
2021/12/07 13:19:21;;;;;;;2.38;1.30;;;8.70;99.90;;;;;;4985249;28;20027;-66
2021/12/07 13:21:48;;;;;;;3.17;1.77;;;8.60;99.90;;;;;;4982229;28;20278;-64
2021/12/07 13:24:32;;;;;;;3.60;2.30;;;8.70;99.90;;;;;;4990602;28;20077;-64
2021/12/07 13:26:58;;;;;;;6.22;1.55;;;8.70;99.90;;;;;;4989746;28;20038;-65
2021/12/07 13:29:27;;;;;;;2.92;1.63;;;8.60;99.90;;;;;;4990029;28;20096;-65
2021/12/07 13:31:56;;;;;;;1.27;1.10;;;8.60;99.90;;;;;;4987563;28;20431;-65
2021/12/07 13:34:34;;;;;;;5.88;2.13;;;8.60;99.90;;;;;;4990961;28;20073;-65
2021/12/07 13:37:12;;;;;;;2.80;2.00;;;8.70;99.90;;;;;;4986539;28;20080;-65
2021/12/07 13:39:39;;;;;;;1.63;1.52;;;8.70;99.90;;;;;;4989663;28;20031;-63
2021/12/07 13:42:22;;;;;;;1.83;1.20;;;8.60;99.90;;;;;;4986998;28;20018;-64
2021/12/07 13:45:03;;;;;;;1.13;1.02;;;8.70;99.90;;;;;;4988508;28;20114;-64
2021/12/07 13:47:33;;;;;;;2.92;2.25;;;8.70;99.90;;;;;;4988656;28;20484;-65
2021/12/07 13:50:04;;;;;;;2.35;1.25;;;8.60;99.90;;;;;;4988234;28;20029;-65
2021/12/07 13:52:33;;;;;;;3.22;1.42;;;8.60;99.90;;;;;;4988881;28;20033;-64
2021/12/07 13:55:03;;;;;;;4.55;2.22;;;8.50;99.90;;;;;;4989813;28;20019;-64
2021/12/07 13:57:34;;;;;;;2.28;1.60;;;8.50;99.90;;;;;;4985897;28;20038;-64
2021/12/07 14:00:05;;;;;;;4.43;1.92;;;8.40;99.90;;;;;;4987826;28;20023;-64
2021/12/07 14:02:31;;;;;;;1.40;1.23;;;8.50;99.90;;;;;;4988554;28;20034;-65
2021/12/07 14:05:04;;;;;;;2.42;2.10;;;8.50;99.90;;;;;;4988423;28;20384;-64
2021/12/07 14:07:32;;;;;;;4.20;2.83;;;8.50;99.90;;;;;;4986354;28;20042;-66
2021/12/07 14:10:05;;;;;;;3.25;2.47;;;8.40;99.90;;;;;;4987477;28;20080;-65
2021/12/07 14:12:31;;;;;;;3.65;3.15;;;8.40;99.90;;;;;;4984027;28;20345;-66
2021/12/07 14:15:13;;;;;;;6.07;3.03;;;8.40;99.90;;;;;;4986343;28;20113;-66
2021/12/07 14:17:42;;;;;;;4.57;2.67;;;8.30;99.90;;;;;;4984749;28;20033;-66
2021/12/07 14:20:08;;;;;;;3.35;1.98;;;8.30;99.90;;;;;;4986948;28;20037;-65
2021/12/07 14:22:34;;;;;;;1.60;1.50;;;8.40;99.90;;;;;;4990836;28;20031;-66
2021/12/07 14:25:00;;;;;;;5.97;1.52;;;8.40;99.90;;;;;;4986347;28;20045;-66
2021/12/07 14:27:26;;;;;;;2.72;1.52;;;8.40;99.90;;;;;;4986723;28;20058;-68
2021/12/07 14:29:53;;;;;;;2.17;1.92;;;8.30;99.90;;;;;;4986749;28;20030;-67
2021/12/07 14:32:19;;;;;;;3.80;2.33;;;8.30;99.90;;;;;;4992804;28;20213;-65
2021/12/07 14:34:45;;;;;;;2.38;2.17;;;8.30;99.90;;;;;;4990260;28;20455;-66
2021/12/07 14:37:12;;;;;;;4.15;2.30;;;8.30;99.90;;;;;;4987793;28;20075;-67
2021/12/07 14:39:43;;;;;;;3.90;2.50;;;8.30;99.90;;;;;;4993867;28;20109;-66
2021/12/07 14:42:15;;;;;;;6.43;2.65;;;8.30;99.90;;;;;;4993986;28;20481;-67
2021/12/07 14:44:56;;;;;;;3.20;1.90;;;8.30;99.90;;;;;;4993126;28;20030;-67
2021/12/07 14:47:22;;;;;;;4.32;2.40;;;8.20;99.90;;;;;;4997032;28;20069;-66
2021/12/07 14:49:54;;;;;;;6.32;3.15;;;8.30;99.90;;;;;;4993744;28;20559;-66
2021/12/07 14:52:21;;;;;;;4.45;2.80;;;8.30;99.90;;;;;;4992914;28;20026;-67
2021/12/07 14:54:49;;;;;;;6.00;2.90;;;8.20;99.90;;;;;;4993185;28;20097;-65
2021/12/07 14:57:20;;;;;;;5.32;3.50;;;8.10;99.90;;;;;;4991152;28;20462;-67